• Join FlightAware (Why Join?)
  • Login
  • US Flag 
08:28AM EDT


 

Airport Tracker/Info


-or-


 

Live Flight TrackerFlight Track Log ✈ AZU2455 ✈ 10-Mar-2014 ✈ SBNF / NVT - SBPA / POA

Flight Track Log - Related Links

Times and Time Zones

All times are in EDT time to prevent confusion due to time zone crossing. See the AZU2455 flight status page for this flight to view local times or setup timezone preferences in your user account.

Time Position Orientation Groundspeed Altitude Reporting Facility
EDT Latitude Longitude Course Direction KTS MPH feet Rate Location/Type
06:11AM -27.3542 -49.0755 214° Southwest  Level Estimated
06:12AM -27.4044 -49.1141 214° Southwest  Level Estimated
06:13AM -27.4545 -49.1528 214° Southwest  Level Estimated
06:14AM -27.5046 -49.1915 214° Southwest  Level Estimated
06:15AM -27.5547 -49.2302 214° Southwest  Level Estimated
06:16AM -27.6048 -49.2690 214° Southwest  Level Estimated
06:17AM -27.6549 -49.3078 214° Southwest  Level Estimated
06:18AM -27.7050 -49.3466 214° Southwest  Level Estimated
06:19AM -27.7550 -49.3854 214° Southwest  Level Estimated
06:20AM -27.8051 -49.4244 215° Southwest  Level Estimated
06:21AM -27.8551 -49.4633 215° Southwest  Level Estimated
06:22AM -27.9052 -49.5023 215° Southwest  Level Estimated
06:23AM -27.9552 -49.5413 215° Southwest  Level Estimated
06:24AM -28.0052 -49.5803 215° Southwest  Level Estimated
06:25AM -28.0552 -49.6194 215° Southwest  Level Estimated
06:26AM -28.1052 -49.6585 215° Southwest  Level Estimated
06:27AM -28.1552 -49.6977 215° Southwest  Level Estimated
06:28AM -28.2051 -49.7369 215° Southwest  Level Estimated
06:29AM -28.2551 -49.7761 215° Southwest  Level Estimated
06:30AM -28.3050 -49.8153 215° Southwest  Level Estimated
06:31AM -28.3550 -49.8546 215° Southwest  Level Estimated
06:32AM -28.4049 -49.8940 215° Southwest  Level Estimated
06:33AM -28.4548 -49.9333 215° Southwest  Level Estimated
06:34AM -28.5047 -49.9728 215° Southwest  Level Estimated
06:35AM -28.5776 -50.0304 215° Southwest  Level Estimated
06:36AM -28.6505 -50.0882 215° Southwest  Level Estimated
06:37AM -28.7233 -50.1460 215° Southwest  Level Estimated
06:38AM -28.7961 -50.2039 215° Southwest  Level Estimated
06:39AM -28.8689 -50.2618 215° Southwest  Level Estimated
06:40AM -28.9417 -50.3199 215° Southwest  Level Estimated
06:41AM -29.0145 -50.3780 215° Southwest  Level Estimated
06:42AM -29.0872 -50.4363 215° Southwest  Level Estimated
06:43AM -29.1599 -50.4946 215° Southwest  Level Estimated
06:44AM -29.2325 -50.5530 215° Southwest  Level Estimated
06:45AM -29.3052 -50.6114 215° Southwest  Level Estimated
06:45AM -29.1038 -50.6497 220° Southwest 265 305 18,000  Level FlightAware ADS-B (SBCO / QNS)
06:46AM -29.1303 -50.6748 220° Southwest 266 306 18,000  Level FlightAware ADS-B (SBCO / QNS)
06:46AM -29.1569 -50.7002 220° Southwest 266 306 18,000  Level FlightAware ADS-B (SBCO / QNS)
06:47AM -29.1817 -50.7238 220° Southwest 264 304 18,000  Level FlightAware ADS-B (SBCO / QNS)
06:47AM -29.2164 -50.7569 221° Southwest 266 306 18,000  Level FlightAware ADS-B (SBCO / QNS)
06:48AM -29.2449 -50.7842 220° Southwest 267 307 18,000  Level FlightAware ADS-B (SBCO / QNS)
06:48AM -29.2716 -50.8097 221° Southwest 266 306 18,000  Level FlightAware ADS-B (SBCO / QNS)
06:49AM -29.2988 -50.8358 220° Southwest 266 306 18,000  Level FlightAware ADS-B (SBCO / QNS)
06:49AM -29.3273 -50.8630 220° Southwest 266 306 18,000  Level FlightAware ADS-B (SBCO / QNS)
06:50AM -29.3557 -50.8903 220° Southwest 267 307 18,000  Level FlightAware ADS-B (SBCO / QNS)
06:50AM -29.3832 -50.9167 221° Southwest 269 310 18,000  Level FlightAware ADS-B (SBCO / QNS)
06:51AM -29.4122 -50.9445 220° Southwest 269 310 18,000  Level FlightAware ADS-B (SBCO / QNS)
06:51AM -29.4409 -50.9721 221° Southwest 268 308 18,000  Level FlightAware ADS-B (SBCO / QNS)
06:52AM -29.4687 -50.9987 221° Southwest 266 306 18,000 -480 Level FlightAware ADS-B (SBCO / QNS)
06:52AM -29.5049 -51.0338 221° Southwest 276 318 17,500 -1,380 Descending FlightAware ADS-B (SBCO / QNS)
06:53AM -29.5350 -51.0628 221° Southwest 270 311 16,400 -2,160 Descending FlightAware ADS-B (SBCO / QNS)
06:53AM -29.5596 -51.0864 221° Southwest 266 306 15,500 -2,100 Descending FlightAware ADS-B (SBCO / QNS)
06:54AM -29.5898 -51.1153 221° Southwest 260 299 14,400 -2,040 Descending FlightAware ADS-B (SBCO / QNS)
06:54AM -29.6167 -51.1413 221° Southwest 258 297 13,400 -2,100 Descending FlightAware ADS-B (SBCO / QNS)
06:55AM -29.6446 -51.1685 221° Southwest 254 292 12,300 -1,920 Descending FlightAware ADS-B (SBCO / QNS)
06:55AM -29.6719 -51.1949 221° Southwest 244 281 11,500 -1,800 Descending FlightAware ADS-B (SBCO / QNS)
06:56AM -29.6978 -51.2201 221° Southwest 238 274 10,500 -1,800 Descending FlightAware ADS-B (SBCO / QNS)
06:56AM -29.7139 -51.2357 221° Southwest 232 267 10,000 -1,620 Descending FlightAware ADS-B (SBCO / QNS)
06:56AM -29.7256 -51.2469 221° Southwest 227 261 9,600 -1,920 Descending FlightAware ADS-B (SBCO / QNS)
06:57AM -29.7377 -51.2587 221° Southwest 224 258 9,100 -1,680 Descending FlightAware ADS-B (SBCO / QNS)
06:57AM -29.7487 -51.2693 221° Southwest 221 254 8,800 -1,560 Descending FlightAware ADS-B (SBCO / QNS)
06:57AM -29.7620 -51.2822 221° Southwest 222 255 8,300 -1,800 Descending FlightAware ADS-B (SBCO / QNS)
06:57AM -29.7728 -51.2927 221° Southwest 222 255 7,900 -1,680 Descending FlightAware ADS-B (SBCO / QNS)
06:58AM -29.7851 -51.3046 220° Southwest 222 255 7,500 -1,620 Descending FlightAware ADS-B (SBCO / QNS)
06:58AM -29.7964 -51.3156 221° Southwest 224 258 7,100 -1,620 Descending FlightAware ADS-B (SBCO / QNS)
06:58AM -29.8075 -51.3263 221° Southwest 225 259 6,700 -1,620 Descending FlightAware ADS-B (SBCO / QNS)
06:58AM -29.8204 -51.3389 221° Southwest 225 259 6,300 -1,560 Descending FlightAware ADS-B (SBCO / QNS)
06:59AM -29.8334 -51.3515 221° Southwest 224 258 5,900 -1,500 Descending FlightAware ADS-B (SBCO / QNS)
06:59AM -29.8448 -51.3627 221° Southwest 223 257 5,500 -1,500 Descending FlightAware ADS-B (SBCO / QNS)
06:59AM -29.8548 -51.3723 221° Southwest 222 255 5,200 -1,560 Descending FlightAware ADS-B (SBCO / QNS)
06:59AM -29.8669 -51.3841 221° Southwest 222 255 4,800 -1,500 Descending FlightAware ADS-B (SBCO / QNS)
07:00AM -29.8801 -51.3969 220° Southwest 222 255 4,400 -1,440 Descending FlightAware ADS-B (SBCO / QNS)
07:00AM -29.9129 -51.4051 163° South 233 268 3,600 -1,440 Descending FlightAware ADS-B (SBCO / QNS)
07:03AM -29.9897 -51.1850 112° Southeast  Level Estimated
07:04AM -29.9944 -51.1714 112° Southeast  Level Estimated
07:05AM -29.9944 -51.1714 North  Level Estimated
07:06AM -29.9944 -51.1714 North  Level Estimated
07:07AM -29.9944 -51.1714 North  Level Estimated
07:08AM -29.9944 -51.1714 North  Level Estimated
07:09AM -29.9944 -51.1714 North  Level Estimated